createdAt,value
2023-03-23T15:58:39.901Z,96369.44
2023-03-23T16:01:17.456Z,96361.75
2023-03-23T16:03:51.998Z,96362.59
2023-03-23T16:06:24.616Z,96360.47
2023-03-23T16:08:55.866Z,96349.84
2023-03-23T16:11:23.849Z,96351.22
2023-03-23T16:13:50.644Z,96351.66
2023-03-23T16:16:21.283Z,96354.69
2023-03-23T16:18:47.776Z,96358.09
2023-03-23T16:21:14.241Z,96354.38
2023-03-23T16:23:41.322Z,96349.50
2023-03-23T16:26:07.805Z,96350.69
2023-03-23T16:28:34.682Z,96359.50
2023-03-23T16:31:01.316Z,96360.00
2023-03-23T16:33:27.859Z,96354.16
2023-03-23T16:35:54.446Z,96344.06
2023-03-23T16:38:21.048Z,96356.41
2023-03-23T16:40:47.546Z,96345.88
2023-03-23T16:43:14.168Z,96345.75
2023-03-23T16:45:44.352Z,96348.81
2023-03-23T16:48:12.355Z,96341.91
2023-03-23T16:50:39.304Z,96351.78
2023-03-23T16:53:08.106Z,96350.78
2023-03-23T16:55:36.593Z,96336.56
2023-03-23T16:58:16.385Z,96349.00
2023-03-23T17:00:48.967Z,96350.19
2023-03-23T17:03:16.826Z,96357.72
2023-03-23T17:05:45.055Z,96354.53
2023-03-23T17:08:12.079Z,96354.84
2023-03-23T17:10:40.771Z,96360.88
2023-03-23T17:13:07.793Z,96359.19
2023-03-23T17:15:37.369Z,96356.84
2023-03-23T17:18:04.486Z,96367.72
2023-03-23T17:20:31.471Z,96361.41
2023-03-23T17:22:59.611Z,96359.81
2023-03-23T17:25:27.543Z,96360.03
2023-03-23T17:27:54.223Z,96353.50
2023-03-23T17:30:20.768Z,96348.19
2023-03-23T17:32:47.915Z,96347.78
2023-03-23T17:35:15.320Z,96348.00
2023-03-23T17:37:43.477Z,96344.03
2023-03-23T17:40:11.014Z,96350.34
2023-03-23T17:42:38.482Z,96350.34
2023-03-23T17:45:06.635Z,96341.88
2023-03-23T17:47:33.553Z,96346.59
2023-03-23T17:50:00.308Z,96343.44
2023-03-23T17:52:38.267Z,96343.75
2023-03-23T17:55:05.482Z,96349.34
2023-03-23T17:57:32.225Z,96353.50
2023-03-23T17:59:58.743Z,96356.75
2023-03-23T18:02:25.406Z,96350.34
2023-03-23T18:04:52.079Z,96349.16
2023-03-23T18:07:23.319Z,96351.22
2023-03-23T18:09:50.529Z,96348.38
2023-03-23T18:12:17.771Z,96349.47
2023-03-23T18:14:44.432Z,96351.69
2023-03-23T18:17:11.030Z,96351.00
2023-03-23T18:19:37.398Z,96354.47
2023-03-23T18:22:03.767Z,96352.88
2023-03-23T18:24:30.324Z,96352.78
2023-03-23T18:26:57.036Z,96356.63
2023-03-23T18:29:23.529Z,96359.38
2023-03-23T18:31:50.317Z,96356.78
2023-03-23T18:34:16.909Z,96358.97
2023-03-23T18:36:43.333Z,96360.53
2023-03-23T18:39:11.991Z,96364.31
2023-03-23T18:41:38.749Z,96370.47
2023-03-23T18:44:06.299Z,96366.03
2023-03-23T18:46:32.853Z,96364.44
2023-03-23T18:48:59.391Z,96369.06
2023-03-23T18:51:26.165Z,96369.84
2023-03-23T18:53:52.741Z,96371.59
2023-03-23T18:56:19.428Z,96368.34
2023-03-23T18:58:46.350Z,96366.94
2023-03-23T19:01:16.182Z,96358.84
2023-03-23T19:03:43.562Z,96370.66
2023-03-23T19:06:15.253Z,96372.69
2023-03-23T19:08:41.735Z,96373.66
2023-03-23T19:11:11.904Z,96363.03
2023-03-23T19:13:40.306Z,96367.56
2023-03-23T19:16:11.331Z,96367.34
2023-03-23T19:18:37.855Z,96373.19
2023-03-23T19:23:33.827Z,96370.03
2023-03-23T19:26:00.516Z,96372.25
2023-03-23T19:30:58.787Z,96367.59
2023-03-23T19:33:26.355Z,96370.66
2023-03-23T19:36:05.898Z,96376.56
2023-03-23T19:38:35.852Z,96363.19
2023-03-23T19:41:03.901Z,96363.03
2023-03-23T19:43:32.010Z,96363.03
2023-03-23T19:45:58.476Z,96356.53
2023-03-23T19:48:24.936Z,96357.13
2023-03-23T19:50:53.045Z,96353.44
2023-03-23T19:53:20.608Z,96352.59
2023-03-23T19:55:47.461Z,96352.38
2023-03-23T19:58:14.507Z,96350.78
2023-03-23T20:00:41.194Z,96343.41
2023-03-23T20:03:07.841Z,96347.22
2023-03-23T20:05:35.705Z,96339.75
2023-03-23T20:08:04.436Z,96343.47
2023-03-23T20:10:34.593Z,96336.78
2023-03-23T20:13:04.927Z,96335.00
2023-03-23T20:15:32.108Z,96335.97
2023-03-23T20:17:58.955Z,96332.84
2023-03-23T20:20:26.443Z,96327.50
2023-03-23T20:22:55.070Z,96323.53
2023-03-23T20:25:23.114Z,96325.50
2023-03-23T20:27:49.578Z,96328.06
2023-03-23T20:30:17.010Z,96324.41
2023-03-23T20:32:46.363Z,96324.41
2023-03-23T20:35:14.595Z,96322.91
2023-03-23T20:37:41.133Z,96317.59
2023-03-23T20:40:14.603Z,96317.81
2023-03-23T20:42:43.949Z,96320.78
2023-03-23T20:45:12.758Z,96319.19
2023-03-23T20:47:40.285Z,96312.28
2023-03-23T20:50:08.709Z,96304.00
2023-03-23T20:52:35.296Z,96310.69
2023-03-23T20:55:02.405Z,96305.88
2023-03-23T20:57:28.984Z,96299.19
2023-03-23T20:59:55.803Z,96303.81
2023-03-23T21:02:25.595Z,96298.69
2023-03-23T21:04:52.790Z,96298.41
2023-03-23T21:07:23.112Z,96291.41
2023-03-23T21:09:49.723Z,96286.66
2023-03-23T21:12:16.677Z,96291.56
2023-03-23T21:14:44.830Z,96296.88
2023-03-23T21:17:11.427Z,96289.91
2023-03-23T21:19:38.198Z,96282.22
2023-03-23T21:22:05.175Z,96285.47
2023-03-23T21:24:32.077Z,96273.31
2023-03-23T21:27:00.557Z,96280.78
2023-03-23T21:29:27.989Z,96270.88
2023-03-23T21:32:07.703Z,96269.50
2023-03-23T21:34:35.989Z,96263.75
2023-03-23T21:37:02.346Z,96258.50
2023-03-23T21:39:28.955Z,96260.53
2023-03-23T21:41:55.544Z,96253.81
2023-03-23T21:44:22.137Z,96256.72
2023-03-23T21:46:48.682Z,96251.88
2023-03-23T21:49:15.427Z,96245.97
2023-03-23T21:51:43.467Z,96242.25
2023-03-23T21:54:11.596Z,96239.06
2023-03-23T21:56:38.403Z,96240.25
2023-03-23T21:59:07.393Z,96235.16
2023-03-23T22:01:36.592Z,96233.03
2023-03-23T22:04:04.005Z,96222.75
2023-03-23T22:06:31.366Z,96218.38
2023-03-23T22:08:58.059Z,96209.19
2023-03-23T22:11:27.662Z,96209.03
2023-03-23T22:13:56.197Z,96215.47
2023-03-23T22:16:24.306Z,96198.25
2023-03-23T22:18:52.700Z,96185.66
2023-03-23T22:21:22.016Z,96180.13
2023-03-23T22:23:49.156Z,96177.25
2023-03-23T22:26:16.637Z,96171.38
2023-03-23T22:28:44.025Z,96158.78
2023-03-23T22:31:18.437Z,96148.97
2023-03-23T22:33:47.343Z,96158.94
2023-03-23T22:36:14.611Z,96159.84
2023-03-23T22:38:43.938Z,96152.16
2023-03-23T22:41:16.489Z,96155.97
2023-03-23T22:43:43.193Z,96154.22
2023-03-23T22:46:09.840Z,96150.25
2023-03-23T22:48:36.310Z,96152.97
2023-03-23T22:51:03.659Z,96151.97
2023-03-23T22:53:30.434Z,96150.31
2023-03-23T22:55:57.971Z,96146.09
2023-03-23T22:58:25.557Z,96147.66
2023-03-23T23:00:58.450Z,96145.53
2023-03-23T23:03:26.600Z,96145.22
2023-03-23T23:05:54.352Z,96138.13
2023-03-23T23:08:23.795Z,96134.06
2023-03-23T23:10:52.456Z,96133.53
2023-03-23T23:13:19.797Z,96137.50
2023-03-23T23:15:49.616Z,96135.25
2023-03-23T23:18:16.388Z,96142.69
2023-03-23T23:20:43.374Z,96151.59
2023-03-23T23:23:10.828Z,96156.88
2023-03-23T23:25:38.543Z,96169.03
2023-03-23T23:28:06.522Z,96184.34
2023-03-23T23:30:34.571Z,96204.91
2023-03-23T23:33:01.783Z,96203.19
2023-03-23T23:35:28.501Z,96186.16
2023-03-23T23:37:55.039Z,96179.91
2023-03-23T23:40:21.535Z,96176.13
2023-03-23T23:42:50.124Z,96166.97
2023-03-23T23:45:17.364Z,96172.59
2023-03-23T23:47:43.841Z,96179.72
2023-03-23T23:50:11.936Z,96175.53
2023-03-23T23:52:39.557Z,96173.06
2023-03-23T23:55:07.430Z,96178.25
2023-03-23T23:57:34.483Z,96182.22
